Time;durP1;ratioP1;P1;durP2;ratioP2;P2;SDS_P1;SDS_P2;PMS_P1;PMS_P2;Temp;Humidity;BMP_temperature;BMP_pressure;BME280_temperature;BME280_humidity;BME280_pressure;Samples;Min_cycle;Max_cycle;Signal;HPM_P1;HPM_P2
2024/02/21 00:00:57;;;;;;;6.20;3.25;;;5.20;65.50;;;0.25;100.00;96519.78;4989297;28;20047;-54
2024/02/21 00:03:23;;;;;;;8.30;3.58;;;5.20;65.50;;;0.24;100.00;96516.34;4991306;28;20029;-55
2024/02/21 00:05:49;;;;;;;9.15;3.53;;;5.20;65.60;;;0.25;100.00;96519.78;4989356;28;20022;-54
2024/02/21 00:08:15;;;;;;;7.13;3.35;;;5.20;65.60;;;0.25;100.00;96523.19;4986908;28;20488;-52
2024/02/21 00:10:41;;;;;;;7.75;3.25;;;5.20;65.70;;;0.27;100.00;96520.41;4972732;28;20036;-52
2024/02/21 00:13:07;;;;;;;6.55;3.30;;;5.10;65.60;;;0.15;100.00;96512.97;4971621;28;20030;-50
2024/02/21 00:15:32;;;;;;;10.38;3.20;;;5.10;65.60;;;0.15;100.00;96512.16;4990274;28;20049;-51
2024/02/21 00:17:58;;;;;;;8.55;3.75;;;5.10;65.70;;;0.15;100.00;96509.53;4988892;28;20484;-54
2024/02/21 00:20:25;;;;;;;9.50;3.47;;;5.10;65.70;;;0.11;100.00;96513.50;4996130;28;20025;-52
2024/02/21 00:22:51;;;;;;;6.95;3.20;;;5.10;65.90;;;0.14;100.00;96513.97;4989626;28;20032;-55
2024/02/21 00:25:17;;;;;;;8.80;3.63;;;5.10;65.80;;;0.19;100.00;96514.25;4988697;28;20010;-52
2024/02/21 00:27:43;;;;;;;8.18;3.60;;;5.10;65.80;;;0.16;100.00;96505.94;4990159;28;20033;-52
2024/02/21 00:30:10;;;;;;;7.63;3.50;;;5.10;65.80;;;0.15;100.00;96499.88;4992846;28;20049;-54
2024/02/21 00:32:36;;;;;;;6.70;3.80;;;5.10;65.90;;;0.11;100.00;96495.16;4972145;28;20172;-50
2024/02/21 00:35:02;;;;;;;9.50;3.28;;;5.10;65.90;;;0.07;100.00;96493.91;4989977;28;20113;-52
2024/02/21 00:37:28;;;;;;;6.40;3.20;;;5.10;65.90;;;0.14;100.00;96487.75;4985290;28;20026;-52
2024/02/21 00:39:55;;;;;;;8.05;2.90;;;5.10;66.00;;;0.11;100.00;96492.56;4990304;28;20025;-53
2024/02/21 00:42:21;;;;;;;10.80;3.55;;;5.10;66.10;;;0.08;100.00;96491.09;4988106;28;20052;-54
2024/02/21 00:44:47;;;;;;;6.70;3.20;;;5.00;65.90;;;0.04;100.00;96476.72;4974643;28;20049;-50
2024/02/21 00:47:13;;;;;;;7.30;3.40;;;5.00;66.00;;;0.07;100.00;96476.38;4990114;28;20439;-54
2024/02/21 00:49:38;;;;;;;8.43;3.80;;;5.00;66.00;;;0.07;100.00;96472.94;4988736;28;20096;-50
2024/02/21 00:52:04;;;;;;;5.07;3.58;;;5.00;66.00;;;0.02;100.00;96470.03;4989482;28;20476;-52
2024/02/21 00:54:30;;;;;;;6.45;2.95;;;5.00;66.10;;;0.03;100.00;96479.50;4988868;28;20045;-57
2024/02/21 00:56:56;;;;;;;5.68;3.20;;;4.90;66.90;;;0.03;100.00;96458.56;4990061;28;20140;-52
2024/02/21 00:59:22;;;;;;;10.85;3.78;;;5.00;66.30;;;0.01;100.00;96458.75;4989797;28;20033;-53
2024/02/21 01:01:48;;;;;;;4.43;3.00;;;5.00;66.30;;;-0.04;100.00;96459.25;4984849;28;20087;-55
2024/02/21 01:04:14;;;;;;;8.48;3.80;;;5.00;66.30;;;-0.02;100.00;96461.72;4989980;28;20025;-53
2024/02/21 01:06:42;;;;;;;8.25;2.95;;;4.90;66.30;;;-0.03;100.00;96466.16;4988399;28;20026;-55
2024/02/21 01:09:08;;;;;;;5.18;3.15;;;5.00;66.40;;;0.09;100.00;96460.47;4972351;28;20045;-57
2024/02/21 01:11:34;;;;;;;7.22;3.50;;;5.00;67.30;;;0.15;100.00;96470.25;4989313;28;20053;-50
2024/02/21 01:14:00;;;;;;;8.50;3.40;;;5.00;66.60;;;0.18;100.00;96475.13;4974169;28;20035;-56
2024/02/21 01:16:26;;;;;;;9.20;3.10;;;5.00;66.70;;;0.14;100.00;96471.25;4989674;28;20029;-54
2024/02/21 01:18:52;;;;;;;10.23;2.88;;;5.10;67.50;;;0.10;100.00;96468.16;4994561;28;20029;-53
2024/02/21 01:21:18;;;;;;;4.80;2.65;;;5.10;67.50;;;0.13;100.00;96474.84;4993070;28;20452;-54
2024/02/21 01:23:44;;;;;;;6.65;3.47;;;5.10;66.70;;;0.16;100.00;96477.94;4993859;28;20112;-54
2024/02/21 01:26:12;;;;;;;6.90;3.22;;;5.10;66.70;;;0.19;100.00;96466.28;4992312;28;20060;-52
2024/02/21 01:28:38;;;;;;;5.72;3.10;;;5.10;66.70;;;0.19;100.00;96469.72;4993375;28;20052;-52
2024/02/21 01:31:05;;;;;;;7.03;3.35;;;5.10;66.70;;;0.23;100.00;96470.97;4991227;28;20018;-55
2024/02/21 01:33:34;;;;;;;4.97;3.17;;;5.20;66.90;;;0.28;100.00;96478.28;4993217;28;20026;-54
2024/02/21 01:36:02;;;;;;;6.13;2.75;;;5.20;66.90;;;0.32;100.00;96463.06;4990753;28;20471;-55
2024/02/21 01:38:28;;;;;;;4.30;3.03;;;5.20;66.90;;;0.32;100.00;96463.88;4991628;28;20499;-54
2024/02/21 01:40:56;;;;;;;7.18;2.80;;;5.30;66.90;;;0.35;100.00;96462.69;4992903;28;20080;-55
2024/02/21 01:43:22;;;;;;;6.60;3.33;;;5.30;66.90;;;0.37;100.00;96450.22;4991883;28;20036;-54
2024/02/21 01:45:57;;;;;;;6.20;2.97;;;5.30;66.90;;;0.40;100.00;96447.22;4992990;28;20021;-54
2024/02/21 01:48:24;;;;;;;7.78;3.30;;;5.40;67.20;;;0.42;100.00;96450.50;4992546;28;20036;-54
2024/02/21 01:50:53;;;;;;;5.18;2.75;;;5.40;67.10;;;0.41;100.00;96452.31;4986582;28;20025;-53
2024/02/21 01:53:29;;;;;;;8.45;3.20;;;5.40;67.10;;;0.45;100.00;96444.91;4992765;28;20064;-52
2024/02/21 01:55:55;;;;;;;6.05;2.97;;;5.40;67.10;;;0.49;100.00;96434.84;4989397;28;20029;-54
2024/02/21 01:58:23;;;;;;;6.60;3.28;;;5.50;67.10;;;0.48;100.00;96434.06;4992960;28;20030;-52
2024/02/21 02:00:50;;;;;;;5.18;2.72;;;5.50;67.10;;;0.52;100.00;96424.00;4963445;28;20492;-52
2024/02/21 02:03:18;;;;;;;4.22;2.88;;;5.50;67.10;;;0.57;100.00;96424.28;4992528;28;20022;-51
2024/02/21 02:05:47;;;;;;;5.88;2.95;;;5.50;67.20;;;0.61;100.00;96421.13;4992119;28;20021;-52
2024/02/21 02:08:19;;;;;;;5.75;3.03;;;5.50;67.20;;;0.60;100.00;96411.63;4990497;28;20112;-56
2024/02/21 02:10:45;;;;;;;5.68;3.00;;;5.60;67.30;;;0.65;100.00;96417.13;4992527;28;20025;-55
2024/02/21 02:13:12;;;;;;;5.88;2.97;;;5.60;67.20;;;0.74;100.00;96412.59;4974008;28;20121;-55
2024/02/21 02:15:47;;;;;;;6.43;2.83;;;5.70;67.40;;;0.79;100.00;96406.81;4992545;28;20423;-53
2024/02/21 02:18:16;;;;;;;10.20;2.58;;;5.70;67.50;;;0.82;100.00;96407.28;4990272;28;20026;-54
2024/02/21 02:20:44;;;;;;;7.20;2.55;;;5.80;67.50;;;0.89;100.00;96412.59;4991928;28;20041;-51
2024/02/21 02:23:27;;;;;;;3.97;2.65;;;5.80;67.50;;;0.93;100.00;96408.59;4992501;28;20053;-51
2024/02/21 02:25:53;;;;;;;6.78;2.63;;;5.90;67.60;;;0.95;100.00;96409.25;4987455;28;20022;-53
2024/02/21 02:28:21;;;;;;;4.88;2.50;;;5.90;67.50;;;0.96;100.00;96395.13;4974879;28;20080;-50
2024/02/21 02:30:48;;;;;;;3.42;2.40;;;5.90;67.50;;;1.02;100.00;96390.94;4988264;28;20032;-53
2024/02/21 02:33:14;;;;;;;5.13;2.40;;;5.90;67.40;;;1.02;100.00;96380.44;4991928;28;20034;-54
2024/02/21 02:35:40;;;;;;;4.25;2.30;;;6.00;67.50;;;1.03;100.00;96376.81;4992141;28;20038;-51
2024/02/21 02:38:06;;;;;;;3.63;2.45;;;6.00;67.40;;;1.02;100.00;96373.38;5003279;23;20026;-56
2024/02/21 02:40:35;;;;;;;4.18;2.28;;;6.10;67.40;;;1.00;100.00;96374.56;4989982;28;20069;-50
2024/02/21 02:43:03;;;;;;;5.05;2.30;;;6.00;67.50;;;1.09;100.00;96374.25;4991663;28;20029;-51
2024/02/21 02:45:29;;;;;;;4.80;2.15;;;6.10;67.50;;;1.14;100.00;96369.28;4991711;28;20092;-55
2024/02/21 02:47:56;;;;;;;4.82;2.53;;;6.10;67.50;;;1.13;100.00;96365.03;4990866;28;20038;-50
2024/02/21 02:50:24;;;;;;;4.05;2.38;;;6.10;67.40;;;1.16;100.00;96371.72;4998404;28;20387;-56
2024/02/21 02:52:50;;;;;;;5.40;2.40;;;6.10;67.40;;;1.17;100.00;96362.03;4996309;28;20061;-55
2024/02/21 02:55:17;;;;;;;6.63;2.20;;;6.20;67.40;;;1.16;100.00;96366.47;4991773;28;20391;-53
2024/02/21 02:57:43;;;;;;;7.90;2.40;;;6.20;67.40;;;1.20;100.00;96357.22;4998019;28;20048;-53
2024/02/21 03:00:14;;;;;;;4.15;2.38;;;6.20;68.20;;;1.21;100.00;96353.59;4993597;28;20052;-51
2024/02/21 03:02:48;;;;;;;4.38;2.33;;;6.20;67.50;;;1.22;100.00;96343.91;4996010;28;20392;-51
2024/02/21 03:05:20;;;;;;;5.68;2.63;;;6.20;67.50;;;1.24;100.00;96347.16;4995773;28;20036;-50
2024/02/21 03:07:47;;;;;;;;;;;6.20;67.50;;;1.25;100.00;96336.47;4994894;28;20050;-51
2024/02/21 03:10:16;;;;;;;5.50;2.70;;;6.30;67.20;;;1.27;100.00;96333.66;4994052;28;19905;-54
2024/02/21 03:12:42;;;;;;;4.90;2.35;;;6.20;67.30;;;1.28;100.00;96332.66;4993608;28;20021;-51
2024/02/21 03:15:09;;;;;;;3.75;2.40;;;6.30;67.30;;;1.29;100.00;96324.63;4992576;28;20480;-54
2024/02/21 03:17:35;;;;;;;3.40;2.00;;;6.30;67.40;;;1.33;100.00;96314.53;4993774;28;20063;-50
2024/02/21 03:20:09;;;;;;;4.28;1.90;;;6.30;67.50;;;1.37;100.00;96313.16;4992602;28;20029;-51
2024/02/21 03:22:36;;;;;;;2.72;2.20;;;6.40;67.60;;;1.42;100.00;96297.66;4988945;28;20040;-53
2024/02/21 03:25:03;;;;;;;2.72;1.90;;;6.40;67.50;;;1.42;100.00;96292.41;4989359;28;20030;-52
2024/02/21 03:27:28;;;;;;;2.88;2.10;;;6.40;67.50;;;1.38;100.00;96289.34;4990617;28;20036;-55
2024/02/21 03:29:54;;;;;;;3.70;2.20;;;6.50;68.30;;;1.42;100.00;96297.66;4991001;28;20017;-55
2024/02/21 03:32:20;;;;;;;3.38;2.10;;;6.50;67.40;;;1.45;100.00;96288.59;4990088;28;20029;-53
2024/02/21 03:34:46;;;;;;;2.88;2.03;;;6.50;67.60;;;1.48;100.00;96285.59;4991066;28;20040;-51
2024/02/21 03:37:13;;;;;;;5.78;2.20;;;6.50;67.50;;;1.51;100.00;96288.66;4990149;28;20030;-52
2024/02/21 03:39:40;;;;;;;4.85;2.10;;;6.50;67.50;;;1.53;100.00;96286.63;4990496;28;20400;-54
2024/02/21 03:42:06;;;;;;;3.75;1.98;;;6.60;67.50;;;1.50;100.00;96278.31;4988812;28;20017;-53
2024/02/21 03:44:32;;;;;;;3.88;1.70;;;6.60;67.40;;;1.56;100.00;96267.06;4990690;28;20025;-56
2024/02/21 03:47:00;;;;;;;2.20;1.60;;;6.60;67.40;;;1.61;100.00;96260.22;4990657;28;20056;-52
2024/02/21 03:49:26;;;;;;;5.38;1.77;;;6.60;67.30;;;1.61;100.00;96251.53;4989608;28;20037;-54
2024/02/21 03:51:52;;;;;;;5.65;1.65;;;6.60;67.20;;;1.56;100.00;96251.31;4988945;28;20022;-54
2024/02/21 03:54:19;;;;;;;2.92;1.20;;;6.70;67.30;;;1.56;100.00;96252.09;4989735;28;20037;-50
2024/02/21 03:56:45;;;;;;;1.40;1.30;;;6.70;67.30;;;1.59;100.00;96246.47;4990346;28;20023;-51
2024/02/21 03:59:10;;;;;;;2.55;1.35;;;6.70;67.20;;;1.63;100.00;96246.94;4990540;28;20388;-50
2024/02/21 04:01:36;;;;;;;1.95;1.33;;;6.70;67.20;;;1.66;100.00;96245.69;4988561;28;20113;-52
2024/02/21 04:04:03;;;;;;;2.72;1.13;;;6.70;67.20;;;1.68;100.00;96238.47;4990445;28;20048;-52
2024/02/21 04:06:29;;;;;;;3.17;1.30;;;6.70;67.20;;;1.71;100.00;96241.50;4988639;28;20041;-52
2024/02/21 04:08:55;;;;;;;1.95;1.30;;;6.70;67.10;;;1.72;100.00;96245.75;4990258;28;20431;-55
2024/02/21 04:11:21;;;;;;;2.83;1.48;;;6.70;67.00;;;1.76;100.00;96238.31;4989878;28;20028;-52
2024/02/21 04:13:49;;;;;;;1.30;1.10;;;6.70;66.90;;;1.74;100.00;96235.88;4989225;28;20516;-55
2024/02/21 04:16:16;;;;;;;2.63;1.20;;;6.80;66.90;;;1.75;100.00;96234.03;4990504;28;20049;-53
2024/02/21 04:18:43;;;;;;;1.88;1.58;;;6.80;66.90;;;1.72;100.00;96221.28;4988577;28;20080;-52
2024/02/21 04:21:14;;;;;;;1.65;1.33;;;6.80;66.70;;;1.70;100.00;96233.84;4989689;28;20026;-51
2024/02/21 04:23:40;;;;;;;2.78;1.40;;;6.80;66.70;;;1.67;100.00;96226.34;4989880;28;20033;-50
2024/02/21 04:26:05;;;;;;;1.63;1.30;;;6.80;67.40;;;1.63;100.00;96223.28;4988619;28;20021;-51
2024/02/21 04:28:31;;;;;;;1.85;1.27;;;6.80;66.50;;;1.59;100.00;96222.84;4989897;28;20040;-51
2024/02/21 04:30:57;;;;;;;4.13;1.30;;;6.70;66.40;;;1.56;100.00;96231.09;4988685;28;20053;-53
2024/02/21 04:33:23;;;;;;;1.88;1.30;;;6.70;66.30;;;1.51;100.00;96228.25;4990052;28;20029;-54
2024/02/21 04:35:48;;;;;;;2.70;1.48;;;6.70;66.30;;;1.47;100.00;96236.69;4990039;28;20472;-52
2024/02/21 04:38:14;;;;;;;2.60;1.30;;;6.60;66.20;;;1.46;100.00;96235.06;4987893;28;20120;-50
2024/02/21 04:40:40;;;;;;;2.38;1.38;;;6.60;66.20;;;1.42;100.00;96231.22;4989921;28;20044;-50
2024/02/21 04:43:06;;;;;;;2.92;1.38;;;6.60;66.20;;;1.38;100.00;96234.22;4986622;28;20018;-50
2024/02/21 04:45:32;;;;;;;2.00;1.40;;;6.60;66.30;;;1.37;100.00;96234.41;4989769;28;20022;-51
2024/02/21 04:47:58;;;;;;;1.35;1.20;;;6.50;67.00;;;1.36;100.00;96235.41;4989436;28;20037;-56
2024/02/21 04:50:23;;;;;;;3.08;1.35;;;6.50;66.20;;;1.34;100.00;96229.53;4986713;28;20028;-56
2024/02/21 04:52:49;;;;;;;1.55;1.15;;;6.50;66.30;;;1.29;100.00;96232.75;4988772;28;20033;-54
2024/02/21 04:55:15;;;;;;;1.90;1.55;;;6.50;66.40;;;1.27;100.00;96224.22;4975124;28;20018;-53
2024/02/21 04:57:41;;;;;;;3.65;1.30;;;6.40;66.30;;;1.29;100.00;96224.88;4976077;28;20049;-54
2024/02/21 05:00:09;;;;;;;2.13;1.38;;;6.40;66.40;;;1.27;100.00;96207.69;4993138;28;20108;-55
2024/02/21 05:02:34;;;;;;;1.80;1.00;;;6.30;66.40;;;1.15;100.00;96205.56;4992932;28;20092;-56
2024/02/21 05:05:00;;;;;;;3.78;1.38;;;6.30;66.40;;;1.18;100.00;96198.31;4993921;28;20034;-51
2024/02/21 05:07:26;;;;;;;1.65;1.17;;;6.30;66.50;;;1.15;100.00;96192.44;4989515;28;20022;-54
2024/02/21 05:09:52;;;;;;;1.20;1.00;;;6.30;66.60;;;1.21;100.00;96190.88;4993919;28;20481;-55
2024/02/21 05:12:18;;;;;;;3.92;1.27;;;6.30;66.60;;;1.19;100.00;96187.63;4992273;28;20033;-54
2024/02/21 05:14:44;;;;;;;1.83;1.20;;;6.30;66.60;;;1.15;100.00;96189.81;4993744;28;20075;-51
2024/02/21 05:17:10;;;;;;;2.83;1.10;;;6.20;66.60;;;1.11;100.00;96190.41;4993320;28;20026;-51
2024/02/21 05:19:35;;;;;;;2.45;1.42;;;6.20;66.50;;;1.11;100.00;96182.53;4992416;28;20033;-53
2024/02/21 05:22:01;;;;;;;2.95;1.10;;;6.20;66.50;;;1.13;100.00;96193.66;4992496;28;20107;-53
2024/02/21 05:24:27;;;;;;;4.18;1.50;;;6.20;66.50;;;1.11;100.00;96196.47;4992786;28;20022;-51
2024/02/21 05:26:54;;;;;;;1.20;1.00;;;6.20;66.50;;;1.08;100.00;96188.97;4993026;28;20511;-51
2024/02/21 05:29:20;;;;;;;2.70;1.10;;;6.10;66.40;;;1.04;100.00;96179.84;4993290;28;20041;-51
2024/02/21 05:31:51;;;;;;;2.75;1.10;;;6.10;66.50;;;1.01;100.00;96177.63;4991396;28;20037;-53
2024/02/21 05:34:21;;;;;;;1.23;1.10;;;6.10;66.60;;;0.93;100.00;96167.25;4993216;28;20492;-52
2024/02/21 05:36:49;;;;;;;1.98;1.13;;;6.10;66.70;;;1.01;100.00;96161.88;4991133;28;20045;-55
2024/02/21 05:39:17;;;;;;;1.60;1.05;;;6.10;66.80;;;1.02;100.00;96165.31;4992804;28;20042;-54
2024/02/21 05:41:43;;;;;;;2.60;1.40;;;6.00;66.70;;;0.97;100.00;96173.72;4992382;28;20384;-55
2024/02/21 05:44:09;;;;;;;1.88;1.10;;;6.00;66.70;;;0.95;100.00;96178.38;4991724;28;20164;-52
2024/02/21 05:46:35;;;;;;;1.75;1.17;;;6.00;66.70;;;0.94;100.00;96184.63;4992620;28;20524;-53
2024/02/21 05:49:01;;;;;;;4.15;1.23;;;6.00;66.70;;;0.92;100.00;96182.19;4991743;28;20025;-54
2024/02/21 05:51:27;;;;;;;1.38;1.02;;;6.00;66.70;;;0.89;100.00;96184.38;4991814;28;20021;-56
2024/02/21 05:53:53;;;;;;;1.23;0.98;;;6.00;67.50;;;0.91;100.00;96175.31;4992951;28;20507;-53
2024/02/21 05:56:19;;;;;;;3.22;1.60;;;6.00;66.90;;;0.89;100.00;96172.06;4992050;28;20493;-51
2024/02/21 05:58:45;;;;;;;1.13;0.90;;;5.90;66.70;;;0.86;100.00;96164.56;4991397;28;20029;-52
2024/02/21 06:01:11;;;;;;;1.38;1.00;;;5.90;66.70;;;0.82;100.00;96158.09;4987009;28;20029;-54
2024/02/21 06:03:37;;;;;;;2.33;1.30;;;5.90;66.80;;;0.79;100.00;96161.09;4992591;28;20029;-51
2024/02/21 06:06:04;;;;;;;3.15;1.35;;;5.90;66.80;;;0.80;100.00;96151.41;4991219;28;20021;-52
2024/02/21 06:08:31;;;;;;;2.47;1.60;;;5.90;66.90;;;0.78;100.00;96145.53;4992518;28;20443;-53
2024/02/21 06:10:57;;;;;;;2.88;1.77;;;5.90;66.90;;;0.77;100.00;96141.28;4992235;28;20030;-51
2024/02/21 06:13:27;;;;;;;2.22;1.98;;;5.90;67.10;;;0.76;100.00;96145.72;4991626;28;20033;-50
2024/02/21 06:15:53;;;;;;;2.47;1.20;;;5.80;67.80;;;0.77;100.00;96143.91;4992226;28;20026;-50
2024/02/21 06:18:20;;;;;;;2.13;1.50;;;5.80;67.00;;;0.77;100.00;96136.84;4991276;28;20021;-52
2024/02/21 06:20:47;;;;;;;4.50;1.33;;;5.90;67.10;;;0.76;100.00;96135.25;4992086;28;20053;-52
2024/02/21 06:23:16;;;;;;;2.03;1.25;;;5.80;67.00;;;0.75;100.00;96128.34;4992333;28;20394;-53
2024/02/21 06:25:42;;;;;;;3.55;1.20;;;5.80;67.20;;;0.67;100.00;96134.56;4991094;28;20080;-51
2024/02/21 06:28:09;;;;;;;4.97;1.10;;;5.80;67.00;;;0.73;100.00;96137.44;4992058;28;20440;-51
2024/02/21 06:30:36;;;;;;;1.45;1.10;;;5.80;67.00;;;0.77;100.00;96141.28;4991136;28;20049;-55
2024/02/21 06:33:02;;;;;;;4.03;1.20;;;5.80;67.00;;;0.76;100.00;96140.50;4991820;28;20053;-52
2024/02/21 06:35:29;;;;;;;1.17;1.00;;;5.80;66.90;;;0.72;100.00;96141.03;4992336;28;20388;-53
2024/02/21 06:37:55;;;;;;;1.35;0.88;;;5.80;66.90;;;0.76;100.00;96142.31;4990820;28;20076;-52
2024/02/21 06:40:23;;;;;;;1.67;0.90;;;5.90;67.00;;;0.75;100.00;96148.53;4992066;28;20040;-51
2024/02/21 06:42:50;;;;;;;1.60;1.40;;;5.90;67.00;;;0.76;100.00;96152.78;4990785;28;20128;-51
2024/02/21 06:45:17;;;;;;;1.75;1.20;;;5.90;66.90;;;0.76;100.00;96152.78;4991797;28;20026;-52
2024/02/21 06:47:43;;;;;;;2.13;1.20;;;5.90;67.00;;;0.76;100.00;96153.59;4991599;28;20088;-52
2024/02/21 06:50:09;;;;;;;1.52;1.27;;;5.90;67.00;;;0.75;100.00;96143.28;4990998;28;20032;-53
2024/02/21 06:52:37;;;;;;;2.97;1.30;;;5.90;67.00;;;0.77;100.00;96146.53;4990862;28;20033;-52
2024/02/21 06:55:03;;;;;;;2.45;1.30;;;5.90;67.00;;;0.79;100.00;96147.16;4990167;28;20053;-51
2024/02/21 06:57:30;;;;;;;4.55;1.15;;;5.90;67.00;;;0.80;100.00;96143.53;4991317;28;20500;-51
2024/02/21 06:59:55;;;;;;;3.05;1.20;;;5.90;67.00;;;0.84;100.00;96155.25;4991251;28;20117;-57
2024/02/21 07:02:21;;;;;;;2.33;1.45;;;6.00;67.00;;;0.86;100.00;96153.28;4987063;28;20044;-56
2024/02/21 07:04:47;;;;;;;2.70;0.90;;;6.00;67.00;;;0.88;100.00;96159.16;4989193;28;20024;-56
2024/02/21 07:07:13;;;;;;;1.58;1.00;;;6.10;67.00;;;0.90;100.00;96167.63;4990168;28;20121;-54
2024/02/21 07:09:40;;;;;;;2.90;1.20;;;6.10;66.90;;;0.94;100.00;96166.25;4991403;28;20104;-51
2024/02/21 07:12:06;;;;;;;3.17;1.33;;;6.20;66.90;;;0.96;100.00;96164.25;4989933;28;20404;-53
2024/02/21 07:14:37;;;;;;;3.03;1.00;;;6.30;66.90;;;0.98;100.00;96169.31;4991542;28;20047;-55
2024/02/21 07:17:03;;;;;;;1.58;1.05;;;6.30;66.90;;;1.05;100.00;96165.72;4990887;28;20484;-53
2024/02/21 07:19:29;;;;;;;1.73;1.13;;;6.40;66.90;;;1.10;100.00;96158.09;4990512;28;20049;-55
2024/02/21 07:21:55;;;;;;;3.22;1.00;;;6.50;66.90;;;1.16;100.00;96161.78;4973174;28;20046;-52
2024/02/21 07:24:20;;;;;;;4.93;1.17;;;6.60;66.90;;;1.25;100.00;96152.72;4990316;28;20030;-52
2024/02/21 07:26:46;;;;;;;3.38;1.40;;;6.60;66.80;;;1.35;100.00;96152.41;4990833;28;20409;-52
2024/02/21 07:29:13;;;;;;;1.58;1.08;;;6.80;66.90;;;1.45;100.00;96157.31;4991089;28;20484;-53
2024/02/21 07:31:41;;;;;;;1.65;1.20;;;6.80;66.90;;;1.56;100.00;96151.50;4989472;28;20087;-54
2024/02/21 07:34:08;;;;;;;1.95;1.40;;;7.00;67.00;;;1.70;100.00;96155.03;4985346;28;20022;-50
2024/02/21 07:36:34;;;;;;;3.20;1.50;;;7.10;67.00;;;1.82;100.00;96148.22;4989130;28;20504;-53
2024/02/21 07:39:00;;;;;;;3.03;1.25;;;7.30;67.00;;;1.96;100.00;96156.97;4990771;28;20095;-51
2024/02/21 07:41:28;;;;;;;2.17;1.10;;;7.50;67.00;;;2.07;100.00;96154.59;4990239;28;20026;-54
2024/02/21 07:43:54;;;;;;;2.15;1.20;;;7.60;66.80;;;2.24;100.00;96144.50;4989672;28;20124;-53
2024/02/21 07:46:20;;;;;;;1.13;1.02;;;7.90;66.80;;;2.43;100.00;96139.50;4990628;28;20150;-52
2024/02/21 07:48:47;;;;;;;1.45;1.00;;;8.10;66.60;;;2.65;100.00;96132.25;4989687;28;20461;-51
2024/02/21 07:51:13;;;;;;;2.33;1.17;;;8.40;66.40;;;2.95;100.00;96137.94;4989948;28;20025;-51
2024/02/21 07:53:44;;;;;;;2.45;1.40;;;8.70;66.10;;;3.27;100.00;96130.22;4990435;28;20030;-51
2024/02/21 07:56:12;;;;;;;2.10;1.20;;;9.00;65.80;;;3.60;100.00;96132.75;4989118;28;20239;-52
2024/02/21 07:58:38;;;;;;;3.05;1.02;;;9.40;66.40;;;3.87;100.00;96128.22;4990794;28;20022;-51
2024/02/21 08:01:04;;;;;;;4.85;1.40;;;9.60;65.20;;;4.07;100.00;96121.03;4989085;28;20022;-52
2024/02/21 08:03:29;;;;;;;1.48;1.05;;;9.90;64.90;;;4.23;100.00;96117.13;4990864;28;20026;-54
2024/02/21 08:05:55;;;;;;;2.55;1.08;;;10.10;64.50;;;4.36;100.00;96114.41;4990333;28;20390;-51
2024/02/21 08:08:22;;;;;;;1.50;1.00;;;10.30;64.00;;;4.52;100.00;96112.28;4989595;28;20064;-54
2024/02/21 08:10:49;;;;;;;1.83;1.23;;;10.40;63.50;;;4.66;100.00;96115.63;4989722;28;20022;-55
2024/02/21 08:13:15;;;;;;;2.95;1.08;;;10.60;63.00;;;4.71;97.31;96107.88;4989169;28;20057;-56
2024/02/21 08:15:41;;;;;;;3.22;1.40;;;10.70;62.60;;;4.79;94.81;96113.69;4990315;28;20072;-55
2024/02/21 08:18:08;;;;;;;2.97;1.30;;;10.80;62.10;;;4.97;94.75;96112.13;4989320;28;20583;-56
2024/02/21 08:20:34;;;;;;;4.05;1.20;;;11.00;62.60;;;5.14;94.37;96109.75;4987986;28;20053;-54
2024/02/21 08:23:01;;;;;;;5.30;1.35;;;11.20;61.50;;;5.26;93.34;96108.81;4990082;28;20301;-51
2024/02/21 08:25:27;;;;;;;1.23;1.10;;;11.40;61.10;;;5.43;91.61;96106.44;4989091;28;20100;-52
2024/02/21 08:27:59;;;;;;;1.10;1.00;;;11.60;60.80;;;5.69;90.38;96107.16;4990305;28;20021;-54
2024/02/21 08:30:25;;;;;;;1.20;1.10;;;11.90;60.10;;;5.94;87.05;96105.25;4986552;28;20032;-51
2024/02/21 08:32:53;;;;;;;2.38;0.90;;;12.10;59.90;;;6.21;87.87;96105.75;4989812;28;20034;-51
2024/02/21 08:35:22;;;;;;;1.13;0.85;;;12.30;59.60;;;6.35;82.13;96095.78;4989988;28;20036;-53
2024/02/21 08:37:48;;;;;;;1.52;0.90;;;12.60;59.20;;;6.59;81.36;96094.00;4988601;28;20038;-51
2024/02/21 08:40:17;;;;;;;3.08;1.00;;;12.80;59.20;;;6.88;80.23;96099.47;5004292;23;20136;-52
2024/02/21 08:42:44;;;;;;;2.25;1.08;;;13.20;58.30;;;7.14;77.54;96092.94;4983636;28;20104;-52
2024/02/21 08:45:10;;;;;;;1.23;0.93;;;13.50;57.80;;;7.29;72.12;96095.94;4987988;28;20037;-54
2024/02/21 08:47:40;;;;;;;1.40;1.02;;;13.70;56.90;;;7.57;72.07;96097.88;4988878;28;20037;-53
2024/02/21 08:50:09;;;;;;;1.55;1.20;;;14.00;56.30;;;7.85;71.53;96098.97;4988182;28;20022;-53
2024/02/21 08:52:35;;;;;;;2.08;1.20;;;14.30;56.10;;;8.04;70.01;96086.34;4983849;28;20048;-54
2024/02/21 08:55:01;;;;;;;2.75;1.05;;;14.50;55.60;;;8.20;69.47;96082.94;4986014;28;20499;-55
2024/02/21 08:57:28;;;;;;;1.42;1.02;;;14.80;55.30;;;8.46;68.12;96081.59;4984632;28;20068;-56
2024/02/21 08:59:54;;;;;;;2.45;1.08;;;15.00;54.80;;;8.58;67.10;96082.31;4971697;28;20026;-51
2024/02/21 09:02:20;;;;;;;1.25;1.10;;;15.30;54.50;;;8.65;65.11;96076.06;4983311;28;20543;-53
2024/02/21 09:04:45;;;;;;;2.08;1.20;;;15.40;53.90;;;8.82;65.03;96071.56;4985785;28;20058;-57
2024/02/21 09:07:11;;;;;;;3.42;1.38;;;15.60;53.40;;;9.04;64.05;96082.28;4987853;28;20030;-54
2024/02/21 09:09:40;;;;;;;3.08;1.20;;;15.80;53.00;;;9.24;64.01;96076.47;4984214;28;20029;-58
2024/02/21 09:12:07;;;;;;;1.90;0.95;;;16.00;52.60;;;9.37;62.77;96076.13;4986393;28;20025;-59
2024/02/21 09:14:38;;;;;;;1.98;0.98;;;16.20;52.10;;;9.53;62.79;96077.16;4986214;28;20507;-55
2024/02/21 09:17:04;;;;;;;2.33;1.00;;;16.40;51.80;;;9.62;62.98;96075.69;4987467;28;20026;-58
2024/02/21 09:19:29;;;;;;;1.50;0.85;;;16.60;51.30;;;9.73;60.85;96077.41;4984156;28;20105;-58
2024/02/21 09:21:55;;;;;;;1.20;1.00;;;16.70;50.80;;;9.80;61.27;96063.91;4968557;28;20144;-56
2024/02/21 09:24:21;;;;;;;2.22;1.30;;;16.80;50.40;;;10.04;62.85;96071.66;4985440;28;20022;-58
2024/02/21 09:26:47;;;;;;;5.22;1.30;;;16.90;50.20;;;10.18;61.70;96065.72;4986014;28;20034;-58
2024/02/21 09:29:13;;;;;;;1.58;1.40;;;17.00;50.20;;;10.20;62.49;96070.75;4989247;28;20113;-59
2024/02/21 09:31:39;;;;;;;3.00;1.58;;;17.10;50.00;;;10.15;62.09;96066.22;4987706;28;20472;-59
2024/02/21 09:34:05;;;;;;;7.28;1.90;;;17.20;49.80;;;10.10;63.79;96074.13;4988752;28;20029;-58
2024/02/21 09:36:31;;;;;;;3.55;2.13;;;17.30;49.60;;;9.98;63.23;96060.13;4987218;28;20044;-59
2024/02/21 09:38:57;;;;;;;3.80;2.28;;;17.40;49.20;;;10.18;61.82;96057.72;4946305;28;1246292;-58
2024/02/21 09:41:27;;;;;;;3.70;1.70;;;17.40;48.80;;;10.41;61.79;96058.50;4992650;28;20072;-60
2024/02/21 09:43:54;;;;;;;2.35;1.70;;;17.60;48.50;;;10.39;61.12;96058.75;4974853;28;20400;-59
2024/02/21 09:46:50;;;;;;;2.45;1.70;;;17.60;48.30;;;10.52;60.38;96057.53;4993309;28;20029;-60
2024/02/21 09:49:41;;;;;;;2.42;1.73;;;17.80;47.90;;;10.78;62.49;96053.25;4935053;28;20120;-58
2024/02/21 09:52:08;;;;;;;2.13;1.50;;;18.00;47.70;;;10.85;59.07;96050.38;4971479;28;20022;-56
2024/02/21 09:54:35;;;;;;;4.28;1.58;;;18.10;47.70;;;11.07;59.37;96044.94;4993573;28;20029;-60
2024/02/21 09:57:03;;;;;;;2.30;1.55;;;18.30;47.30;;;11.20;58.43;96044.50;4992804;28;20067;-59
2024/02/21 09:59:32;;;;;;;1.90;1.48;;;18.50;47.20;;;11.15;57.90;96036.44;4993581;28;20033;-56
2024/02/21 10:02:02;;;;;;;3.13;1.20;;;18.70;46.40;;;11.05;57.94;96039.03;4992379;28;20488;-58
2024/02/21 10:04:30;;;;;;;1.98;1.33;;;18.70;45.60;;;11.21;59.30;96035.41;4975257;28;20033;-57
2024/02/21 10:06:56;;;;;;;2.75;1.20;;;18.70;46.30;;;11.43;56.44;96040.63;4989033;28;20075;-54
2024/02/21 10:09:28;;;;;;;3.78;1.35;;;18.80;45.40;;;11.79;56.43;96046.16;4992907;28;20479;-58
2024/02/21 10:12:06;;;;;;;2.55;1.45;;;18.90;45.00;;;11.53;55.52;96039.88;4992796;28;20017;-57
2024/02/21 10:14:32;;;;;;;1.35;1.17;;;19.10;45.20;;;11.65;54.93;96034.31;4992825;28;20596;-56
2024/02/21 10:16:58;;;;;;;1.45;1.20;;;19.10;44.70;;;11.41;55.91;96032.09;4975829;28;20120;-55
2024/02/21 10:19:25;;;;;;;4.00;1.58;;;19.10;44.00;;;11.74;56.46;96028.22;4989933;28;20558;-57
2024/02/21 10:22:09;;;;;;;3.10;1.42;;;19.10;44.10;;;11.72;53.46;96029.53;4992095;28;20084;-57
2024/02/21 10:24:42;;;;;;;2.20;1.35;;;19.20;43.60;;;11.93;54.74;96023.25;4991700;28;20488;-57